Madera, CA

1:32 AM PST on December 21, 2014 (GMT -0800)
Madera Municipal | Change Station
CLOSE
Current Station
Airport
Location: Madera,
Elevation: 253 ft
Nearby Weather Stations

Elev 253 ft 36.99 °N, 120.11 °W | Updated 34 minutes ago

Fog
Fog
51 °F
Feels Like 51 °F
N
0
Wind Variable Wind from North

Today
High -- | Low -- °F
--% Chance of Precip.
Yesterday
High -- | Low -- °F
Precip. -- in
7:09 AM 4:47 PM
Waning Crescent, 1% visible
Pressure 30.26 in
Visibility 0.5 miles
Clouds
Dew Point 49 °F
Humidity 92%
Rainfall 0.00 in
Snow Depth Not available.
UV Not available.
Pollen 3.30 out of 12
Air Quality Not available.
Flu Activity Not available.
SPECI KMAE 210858Z AUTO 00000KT 1/2SM FG VV003 11/09 A3026 RMK AO2 T01060094

More Conditions Fewer Conditions

Pressure 30.26 in
Visibility 0.5 miles
Clouds
Dew Point 49 °F
Humidity 92%
Rainfall 0.00 in
Snow Depth Not available.
UV Not available.
Pollen 3.30 out of 12
Air Quality Not available.
Flu Activity Not available.
SPECI KMAE 210858Z AUTO 00000KT 1/2SM FG VV003 11/09 A3026 RMK AO2 T01060094

More Conditions Fewer Conditions

10-Day Weather Forecast

Almanac

Astronomy

Dec. 21, 2014 Rise Set
Actual Time
Civil Twilight
Nautical Twilight
Astronomical Twilight
Moon
Length of Visible Light
Length of Day
Tomorrow will be .
, % of the Moon is Illuminated

Today's Extremes

State Highs State Lows

Community

WunderPhotos

Upload Photos

1,779,364 photos uploaded!

WunderBlogs® & News

Nearby

Air Quality

  Air Quality AQ Index Pollutant
Not available.

Snow Depth

Station Depth Elevation

Earthquake Activity

City Distance Mag. Time & Date
Minimum magnitude displayed is 2.5.

Coastal Water Temperatures

Place Temperature

Nearby Weather Stations